createdAt,value
2022-08-25T00:02:11.206Z,20.60
2022-08-25T00:07:13.035Z,20.60
2022-08-25T00:12:21.068Z,20.60
2022-08-25T00:17:22.876Z,20.60
2022-08-25T00:22:24.665Z,20.60
2022-08-25T00:27:26.616Z,20.60
2022-08-25T00:32:28.440Z,20.60
2022-08-25T00:37:30.272Z,20.60
2022-08-25T00:42:32.536Z,20.60
2022-08-25T00:47:34.576Z,20.60
2022-08-25T00:52:39.507Z,20.60
2022-08-25T00:57:46.093Z,20.50
2022-08-25T01:02:48.144Z,20.50
2022-08-25T01:07:50.973Z,20.50
2022-08-25T01:12:58.372Z,20.50
2022-08-25T01:18:01.329Z,20.50
2022-08-25T01:23:03.475Z,20.50
2022-08-25T01:28:05.994Z,20.60
2022-08-25T01:33:11.743Z,20.60
2022-08-25T01:38:14.368Z,20.60
2022-08-25T01:43:18.197Z,20.50
2022-08-25T01:48:20.558Z,20.60
2022-08-25T01:53:32.347Z,20.60
2022-08-25T01:58:37.552Z,20.50
2022-08-25T02:03:42.086Z,20.50
2022-08-25T02:08:44.784Z,20.40
2022-08-25T02:13:46.624Z,20.30
2022-08-25T02:18:48.783Z,20.20
2022-08-25T02:23:50.679Z,20.10
2022-08-25T02:28:53.432Z,20.10
2022-08-25T02:33:57.190Z,20.00
2022-08-25T02:38:59.423Z,20.00
2022-08-25T02:44:03.747Z,20.00
2022-08-25T02:49:07.161Z,20.00
2022-08-25T02:54:09.409Z,20.00
2022-08-25T02:59:11.241Z,20.00
2022-08-25T03:04:13.272Z,20.10
2022-08-25T03:09:15.798Z,20.20
2022-08-25T03:14:17.735Z,20.30
2022-08-25T03:19:20.363Z,20.30
2022-08-25T03:24:23.648Z,20.40
2022-08-25T03:29:28.523Z,20.40
2022-08-25T03:34:30.726Z,20.50
2022-08-25T03:39:32.848Z,20.50
2022-08-25T03:44:34.684Z,20.50
2022-08-25T03:49:36.550Z,20.50
2022-08-25T03:54:38.384Z,20.50
2022-08-25T03:59:40.207Z,20.50
2022-08-25T04:04:42.032Z,20.60
2022-08-25T04:09:43.983Z,20.70
2022-08-25T04:14:45.790Z,20.80
2022-08-25T04:19:47.645Z,20.80
2022-08-25T04:24:49.395Z,20.80
2022-08-25T04:29:51.244Z,20.80
2022-08-25T04:34:53.094Z,20.90
2022-08-25T04:39:54.929Z,21.10
2022-08-25T04:44:56.767Z,21.10
2022-08-25T04:49:58.560Z,21.20
2022-08-25T04:55:00.452Z,21.20
2022-08-25T05:00:02.867Z,21.20
2022-08-25T05:05:05.192Z,21.20
2022-08-25T05:10:07.620Z,21.30
2022-08-25T05:15:29.243Z,21.50
2022-08-25T05:20:31.335Z,21.40
2022-08-25T05:25:33.363Z,21.70
2022-08-25T05:30:41.327Z,21.90
2022-08-25T05:35:43.353Z,22.50
2022-08-25T05:40:45.323Z,22.40
2022-08-25T05:45:47.377Z,22.70
2022-08-25T05:51:00.078Z,23.00
2022-08-25T05:56:02.503Z,23.30
2022-08-25T06:01:23.314Z,23.80
2022-08-25T06:06:26.273Z,23.90
2022-08-25T06:11:28.175Z,24.50
2022-08-25T06:16:30.212Z,24.70
2022-08-25T06:21:32.063Z,24.60
2022-08-25T06:26:34.572Z,25.60
2022-08-25T06:31:36.682Z,25.80
2022-08-25T06:36:38.831Z,25.70
2022-08-25T06:41:40.759Z,27.30
2022-08-25T06:46:42.628Z,28.00
2022-08-25T06:51:44.605Z,29.10
2022-08-25T06:56:47.010Z,28.10
2022-08-25T07:01:51.600Z,26.30
2022-08-25T07:06:54.895Z,27.70
2022-08-25T07:11:57.119Z,27.60
2022-08-25T07:16:59.018Z,27.70
2022-08-25T07:22:01.530Z,29.10
2022-08-25T07:27:03.338Z,28.90
2022-08-25T07:32:06.621Z,29.20
2022-08-25T07:37:08.538Z,29.70
2022-08-25T07:42:12.308Z,30.60
2022-08-25T07:47:15.954Z,32.10
2022-08-25T07:52:17.804Z,33.80
2022-08-25T07:57:19.710Z,33.60
2022-08-25T08:02:21.676Z,34.70
2022-08-25T08:07:43.122Z,36.20
2022-08-25T08:12:45.979Z,35.90
2022-08-25T08:17:47.779Z,35.60
2022-08-25T08:22:50.052Z,32.00
2022-08-25T08:27:51.892Z,30.70
2022-08-25T08:33:09.728Z,28.50
2022-08-25T08:38:17.306Z,28.40
2022-08-25T08:43:25.129Z,29.60
2022-08-25T08:49:09.628Z,31.80
2022-08-25T08:54:20.361Z,30.60
2022-08-25T08:59:31.154Z,30.10
2022-08-25T09:04:39.374Z,33.00
2022-08-25T09:09:42.941Z,33.50
2022-08-25T09:14:54.904Z,34.80
2022-08-25T09:20:25.048Z,35.20
2022-08-25T09:26:11.913Z,31.10
2022-08-25T09:31:29.601Z,30.80
2022-08-25T09:36:37.474Z,30.50
2022-08-25T09:41:42.509Z,29.90
2022-08-25T09:46:57.136Z,28.30
2022-08-25T09:52:22.185Z,29.50
2022-08-25T09:57:49.238Z,29.80
2022-08-25T10:03:05.896Z,29.70
2022-08-25T10:08:24.785Z,29.40
2022-08-25T10:13:38.155Z,29.30
2022-08-25T10:18:40.117Z,28.20
2022-08-25T10:23:51.777Z,26.20
2022-08-25T10:29:25.290Z,27.10
2022-08-25T10:34:44.775Z,27.10
2022-08-25T10:40:13.023Z,26.90
2022-08-25T10:45:43.869Z,27.20
2022-08-25T10:50:49.180Z,27.00
2022-08-25T10:56:17.415Z,27.20
2022-08-25T11:01:49.132Z,26.60
2022-08-25T11:07:10.586Z,26.10
2022-08-25T11:12:18.792Z,25.90
2022-08-25T11:17:33.036Z,26.30
2022-08-25T11:22:47.596Z,26.40
2022-08-25T11:27:54.379Z,26.30
2022-08-25T11:32:56.920Z,26.30
2022-08-25T11:38:36.037Z,26.20
2022-08-25T11:44:08.800Z,26.10
2022-08-25T11:49:51.345Z,26.60
2022-08-25T11:54:53.171Z,26.40
2022-08-25T11:59:59.240Z,25.90
2022-08-25T12:05:01.396Z,25.80
2022-08-25T12:10:03.218Z,26.00
2022-08-25T12:15:25.922Z,26.00
2022-08-25T12:20:53.634Z,25.90
2022-08-25T12:25:58.512Z,25.70
2022-08-25T12:31:07.667Z,25.30
2022-08-25T12:36:25.366Z,24.90
2022-08-25T12:41:33.558Z,25.10
2022-08-25T12:46:39.425Z,25.00
2022-08-25T12:51:59.104Z,24.70
2022-08-25T12:57:25.012Z,24.60
2022-08-25T13:02:52.810Z,24.40
2022-08-25T13:08:04.466Z,24.20
2022-08-25T13:13:37.707Z,24.40
2022-08-25T13:18:41.483Z,24.40
2022-08-25T13:23:47.599Z,24.50
2022-08-25T13:29:17.879Z,24.50
2022-08-25T13:34:22.980Z,24.80
2022-08-25T13:39:56.174Z,24.50
2022-08-25T13:44:59.687Z,24.50
2022-08-25T13:50:21.533Z,24.20
2022-08-25T13:55:38.228Z,23.60
2022-08-25T14:01:23.703Z,23.90
2022-08-25T14:06:41.296Z,23.80
2022-08-25T14:11:45.144Z,23.70
2022-08-25T14:16:54.174Z,23.60
2022-08-25T14:22:02.101Z,23.70
2022-08-25T14:27:05.138Z,23.40
2022-08-25T14:32:07.105Z,23.40
2022-08-25T14:37:17.912Z,23.50
2022-08-25T14:42:20.067Z,23.50
2022-08-25T14:47:21.935Z,23.60
2022-08-25T14:52:28.860Z,23.60
2022-08-25T14:57:30.671Z,23.30
2022-08-25T15:02:38.181Z,23.40
2022-08-25T15:07:58.563Z,23.40
2022-08-25T15:13:00.492Z,23.60
2022-08-25T15:18:02.532Z,23.40
2022-08-25T15:23:04.456Z,23.40
2022-08-25T15:28:09.815Z,23.20
2022-08-25T15:33:11.925Z,23.20
2022-08-25T15:38:14.456Z,23.10
2022-08-25T15:43:16.545Z,23.10
2022-08-25T15:48:18.375Z,23.10
2022-08-25T15:53:21.471Z,23.00
2022-08-25T15:58:24.426Z,22.70
2022-08-25T16:03:27.263Z,22.50
2022-08-25T16:08:29.054Z,22.50
2022-08-25T16:13:33.069Z,22.50
2022-08-25T16:18:34.907Z,22.30
2022-08-25T16:23:38.564Z,22.10
2022-08-25T16:28:43.718Z,22.10
2022-08-25T16:33:45.794Z,21.90
2022-08-25T16:38:49.260Z,21.90
2022-08-25T16:43:53.248Z,21.80
2022-08-25T16:48:55.694Z,21.80
2022-08-25T16:54:22.020Z,21.70
2022-08-25T16:59:25.103Z,21.80
2022-08-25T17:04:27.641Z,21.80
2022-08-25T17:09:34.236Z,21.80
2022-08-25T17:14:36.084Z,21.70
2022-08-25T17:19:37.965Z,21.60
2022-08-25T17:24:40.588Z,21.30
2022-08-25T17:29:43.491Z,21.20
2022-08-25T17:34:46.079Z,21.10
2022-08-25T17:39:47.956Z,21.00
2022-08-25T17:44:52.369Z,21.00
2022-08-25T17:49:54.279Z,20.80
2022-08-25T17:54:56.459Z,20.70
2022-08-25T18:00:00.776Z,20.60
2022-08-25T18:05:04.788Z,20.60
2022-08-25T18:10:08.894Z,20.60
2022-08-25T18:15:11.447Z,20.60
2022-08-25T18:20:16.276Z,20.50
2022-08-25T18:25:19.543Z,20.50
2022-08-25T18:30:23.111Z,20.50
2022-08-25T18:35:28.166Z,20.50
2022-08-25T18:40:31.636Z,20.40
2022-08-25T18:45:50.443Z,20.30
2022-08-25T18:50:53.780Z,20.20
2022-08-25T18:55:58.076Z,20.10
2022-08-25T19:01:01.502Z,20.10
2022-08-25T19:06:03.379Z,20.00
2022-08-25T19:11:06.403Z,20.00
2022-08-25T19:16:17.749Z,19.80
2022-08-25T19:21:23.826Z,19.80
2022-08-25T19:26:25.867Z,19.70
2022-08-25T19:31:33.358Z,19.60
2022-08-25T19:36:35.550Z,19.60
2022-08-25T19:41:37.523Z,19.50
2022-08-25T19:46:43.067Z,19.60
2022-08-25T19:51:51.124Z,19.60
2022-08-25T19:56:54.430Z,19.70
2022-08-25T20:01:57.173Z,19.70
2022-08-25T20:06:59.206Z,19.60
2022-08-25T20:12:01.112Z,19.50
2022-08-25T20:17:03.845Z,19.50
2022-08-25T20:22:18.199Z,19.40
2022-08-25T20:27:24.671Z,19.40
2022-08-25T20:32:26.542Z,19.50
2022-08-25T20:37:33.786Z,19.40
2022-08-25T20:42:35.913Z,19.40
2022-08-25T20:47:39.760Z,19.40
2022-08-25T20:52:44.053Z,19.40
2022-08-25T20:57:47.803Z,19.30
2022-08-25T21:02:50.913Z,19.30
2022-08-25T21:07:52.912Z,19.20
2022-08-25T21:12:54.751Z,19.10
2022-08-25T21:17:56.759Z,19.00
2022-08-25T21:22:58.524Z,19.00
2022-08-25T21:28:00.805Z,18.90
2022-08-25T21:33:02.607Z,18.90
2022-08-25T21:38:04.488Z,18.70
2022-08-25T21:43:07.091Z,18.70
2022-08-25T21:48:10.184Z,18.70
2022-08-25T21:53:12.130Z,18.60
2022-08-25T21:58:14.267Z,18.60
2022-08-25T22:03:16.095Z,18.60
2022-08-25T22:08:17.904Z,18.50
2022-08-25T22:13:21.424Z,18.50
2022-08-25T22:18:24.002Z,18.30
2022-08-25T22:23:28.199Z,18.40
2022-08-25T22:28:30.280Z,18.30
2022-08-25T22:33:32.131Z,18.30
2022-08-25T22:38:33.979Z,18.20
2022-08-25T22:43:35.826Z,18.20
2022-08-25T22:48:37.828Z,18.20
2022-08-25T22:53:40.887Z,18.20
2022-08-25T22:58:43.759Z,18.30
2022-08-25T23:03:53.813Z,18.30
2022-08-25T23:08:57.557Z,18.30
2022-08-25T23:14:00.600Z,18.10
2022-08-25T23:19:02.392Z,17.90
2022-08-25T23:24:04.795Z,17.90
2022-08-25T23:29:17.967Z,17.90
2022-08-25T23:34:21.610Z,17.90
2022-08-25T23:39:24.310Z,17.80
2022-08-25T23:44:26.168Z,17.80
2022-08-25T23:49:27.962Z,17.70
2022-08-25T23:54:31.311Z,17.70
2022-08-25T23:59:33.543Z,17.70
